createdAt,value
2023-02-13T00:02:22.229Z,103790.28
2023-02-13T00:04:49.692Z,103787.38
2023-02-13T00:07:17.134Z,103790.06
2023-02-13T00:09:46.351Z,103786.81
2023-02-13T00:12:13.768Z,103784.88
2023-02-13T00:14:41.504Z,103785.84
2023-02-13T00:17:08.910Z,103775.16
2023-02-13T00:19:36.282Z,103768.81
2023-02-13T00:22:03.932Z,103769.97
2023-02-13T00:24:31.285Z,103773.25
2023-02-13T00:26:58.713Z,103769.00
2023-02-13T00:29:26.082Z,103776.28
2023-02-13T00:31:53.596Z,103779.25
2023-02-13T00:34:21.092Z,103775.31
2023-02-13T00:36:48.487Z,103767.38
2023-02-13T00:39:15.878Z,103770.28
2023-02-13T00:41:43.342Z,103771.94
2023-02-13T00:44:11.327Z,103771.66
2023-02-13T00:46:39.655Z,103768.06
2023-02-13T00:49:07.121Z,103771.44
2023-02-13T00:51:34.638Z,103765.47
2023-02-13T00:54:02.152Z,103771.44
2023-02-13T00:56:29.736Z,103768.69
2023-02-13T00:58:57.353Z,103758.47
2023-02-13T01:01:24.838Z,103769.81
2023-02-13T01:03:52.331Z,103764.47
2023-02-13T01:06:19.752Z,103768.78
2023-02-13T01:08:47.230Z,103752.00
2023-02-13T01:11:14.638Z,103763.81
2023-02-13T01:13:42.061Z,103754.28
2023-02-13T01:16:09.626Z,103760.59
2023-02-13T01:18:37.113Z,103758.16
2023-02-13T01:21:06.229Z,103759.84
2023-02-13T01:23:35.047Z,103761.78
2023-02-13T01:26:04.574Z,103759.84
2023-02-13T01:28:32.059Z,103750.72
2023-02-13T01:31:00.052Z,103757.69
2023-02-13T01:33:28.701Z,103743.94
2023-02-13T01:35:56.492Z,103743.94
2023-02-13T01:38:23.922Z,103740.44
2023-02-13T01:40:52.826Z,103744.56
2023-02-13T01:43:23.407Z,103745.94
2023-02-13T01:45:52.060Z,103748.75
2023-02-13T01:48:21.023Z,103745.03
2023-02-13T01:50:52.586Z,103745.38
2023-02-13T01:53:24.279Z,103741.81
2023-02-13T01:55:54.246Z,103738.41
2023-02-13T01:58:23.863Z,103737.75
2023-02-13T02:00:51.401Z,103730.97
2023-02-13T02:03:22.387Z,103729.50
2023-02-13T02:05:51.237Z,103736.97
2023-02-13T02:08:19.202Z,103738.41
2023-02-13T02:10:46.701Z,103741.91
2023-02-13T02:13:17.375Z,103736.47
2023-02-13T02:15:44.873Z,103738.25
2023-02-13T02:18:16.811Z,103734.69
2023-02-13T02:21:03.011Z,103743.44
2023-02-13T02:23:49.349Z,103741.81
2023-02-13T02:26:16.816Z,103732.91
2023-02-13T02:28:44.220Z,103736.81
2023-02-13T02:31:34.985Z,103740.03
2023-02-13T02:34:19.163Z,103739.94
2023-02-13T02:37:05.213Z,103738.00
2023-02-13T02:39:40.126Z,103735.81
2023-02-13T02:42:07.555Z,103732.91
2023-02-13T02:44:46.422Z,103726.28
2023-02-13T02:47:43.069Z,103729.13
2023-02-13T02:50:15.890Z,103723.75
2023-02-13T02:52:49.745Z,103733.63
2023-02-13T02:55:17.275Z,103722.88
2023-02-13T02:58:13.724Z,103716.81
2023-02-13T03:01:00.755Z,103719.16
2023-02-13T03:03:46.882Z,103712.03
2023-02-13T03:06:29.528Z,103711.72
2023-02-13T03:09:16.892Z,103716.09
2023-02-13T03:12:03.097Z,103715.25
2023-02-13T03:14:30.507Z,103709.81
2023-02-13T03:17:16.490Z,103717.03
2023-02-13T03:20:01.574Z,103719.78
2023-02-13T03:22:43.201Z,103725.25
2023-02-13T03:25:30.202Z,103726.44
2023-02-13T03:28:25.077Z,103732.56
2023-02-13T03:31:02.569Z,103731.44
2023-02-13T03:33:48.463Z,103734.19
2023-02-13T03:36:33.250Z,103722.56
2023-02-13T03:39:04.770Z,103724.31
2023-02-13T03:41:44.162Z,103724.78
2023-02-13T03:44:20.682Z,103725.44
2023-02-13T03:46:49.753Z,103730.63
2023-02-13T03:49:40.982Z,103728.19
2023-02-13T03:52:11.888Z,103725.44
2023-02-13T03:54:56.936Z,103724.63
2023-02-13T03:57:42.798Z,103714.22
2023-02-13T04:00:12.196Z,103712.66
2023-02-13T04:02:42.821Z,103725.44
2023-02-13T04:05:15.586Z,103715.25
2023-02-13T04:07:43.007Z,103716.72
2023-02-13T04:10:12.554Z,103710.88
2023-02-13T04:12:44.679Z,103718.31
2023-02-13T04:15:15.524Z,103719.31
2023-02-13T04:17:46.863Z,103708.59
2023-02-13T04:20:14.667Z,103711.44
2023-02-13T04:22:46.029Z,103710.69
2023-02-13T04:25:15.037Z,103714.09
2023-02-13T04:27:42.421Z,103711.69
2023-02-13T04:30:10.203Z,103713.31
2023-02-13T04:32:37.750Z,103718.00
2023-02-13T04:35:05.274Z,103718.00
2023-02-13T04:37:32.701Z,103722.03
2023-02-13T04:40:00.149Z,103719.31
2023-02-13T04:42:27.600Z,103716.34
2023-02-13T04:44:55.011Z,103708.91
2023-02-13T04:47:22.450Z,103708.91
2023-02-13T04:49:49.903Z,103701.47
2023-02-13T04:52:17.335Z,103714.97
2023-02-13T04:54:44.798Z,103702.13
2023-02-13T04:57:12.229Z,103703.19
2023-02-13T04:59:39.643Z,103698.38
2023-02-13T05:02:07.095Z,103692.84
2023-02-13T05:04:34.837Z,103699.06
2023-02-13T05:07:02.289Z,103684.47
2023-02-13T05:09:29.757Z,103690.31
2023-02-13T05:11:57.448Z,103684.97
2023-02-13T05:14:24.866Z,103693.13
2023-02-13T05:16:52.291Z,103693.03
2023-02-13T05:19:19.753Z,103687.06
2023-02-13T05:22:04.766Z,103685.66
2023-02-13T05:24:32.307Z,103675.84
2023-02-13T05:26:59.701Z,103676.06
2023-02-13T05:29:27.201Z,103688.47
2023-02-13T05:31:55.638Z,103681.25
2023-02-13T05:34:24.198Z,103680.84
2023-02-13T05:36:52.052Z,103682.25
2023-02-13T05:39:19.962Z,103677.16
2023-02-13T05:41:47.884Z,103687.91
2023-02-13T05:44:15.961Z,103688.47
2023-02-13T05:46:44.837Z,103688.72
2023-02-13T05:49:13.399Z,103689.69
2023-02-13T05:51:40.815Z,103689.09
2023-02-13T05:54:08.201Z,103693.72
2023-02-13T05:56:35.638Z,103685.56
2023-02-13T05:59:03.042Z,103684.66
2023-02-13T06:01:30.405Z,103686.59
2023-02-13T06:03:59.320Z,103694.47
2023-02-13T06:06:27.682Z,103691.78
2023-02-13T06:08:55.096Z,103686.69
2023-02-13T06:11:22.702Z,103688.22
2023-02-13T06:13:50.124Z,103684.81
2023-02-13T06:16:17.757Z,103681.75
2023-02-13T06:18:45.237Z,103688.88
2023-02-13T06:21:12.667Z,103691.72
2023-02-13T06:23:40.105Z,103687.41
2023-02-13T06:26:08.820Z,103696.34
2023-02-13T06:28:36.500Z,103694.63
2023-02-13T06:31:04.111Z,103690.19
2023-02-13T06:33:31.692Z,103683.22
2023-02-13T06:35:59.219Z,103685.66
2023-02-13T06:38:26.679Z,103693.41
2023-02-13T06:40:54.135Z,103691.09
2023-02-13T06:43:21.612Z,103690.19
2023-02-13T06:45:49.010Z,103688.53
2023-02-13T06:48:16.721Z,103685.00
2023-02-13T06:50:44.272Z,103687.91
2023-02-13T06:53:11.856Z,103683.78
2023-02-13T06:55:40.091Z,103690.00
2023-02-13T06:58:07.583Z,103693.59
2023-02-13T07:00:35.165Z,103695.09
2023-02-13T07:03:06.576Z,103696.31
2023-02-13T07:05:34.176Z,103683.22
2023-02-13T07:08:01.696Z,103686.13
2023-02-13T07:10:29.178Z,103690.47
2023-02-13T07:13:05.351Z,103687.75
2023-02-13T07:15:36.862Z,103699.53
2023-02-13T07:18:05.022Z,103696.88
2023-02-13T07:20:32.534Z,103707.00
2023-02-13T07:23:00.818Z,103698.16
2023-02-13T07:25:28.757Z,103703.41
2023-02-13T07:28:05.738Z,103700.16
2023-02-13T07:30:33.892Z,103698.84
2023-02-13T07:33:02.159Z,103706.63
2023-02-13T07:35:29.528Z,103707.06
2023-02-13T07:37:57.108Z,103714.66
2023-02-13T07:40:24.522Z,103714.53
2023-02-13T07:42:52.361Z,103717.09
2023-02-13T07:45:19.815Z,103723.06
2023-02-13T07:47:47.313Z,103723.06
2023-02-13T07:50:14.988Z,103726.47
2023-02-13T07:52:42.439Z,103722.91
2023-02-13T07:55:11.615Z,103725.00
2023-02-13T07:57:39.195Z,103728.59
2023-02-13T08:00:06.985Z,103730.38
2023-02-13T08:02:34.419Z,103737.50
2023-02-13T08:05:01.843Z,103746.97
2023-02-13T08:07:29.250Z,103742.84
2023-02-13T08:10:14.222Z,103746.56
2023-02-13T08:12:41.653Z,103744.06
2023-02-13T08:15:10.697Z,103752.19
2023-02-13T08:17:38.110Z,103748.72
2023-02-13T08:20:07.869Z,103744.63
2023-02-13T08:22:35.851Z,103742.84
2023-02-13T08:25:03.811Z,103752.56
2023-02-13T08:27:34.035Z,103744.56
2023-02-13T08:30:01.868Z,103748.75
2023-02-13T08:32:29.418Z,103740.84
2023-02-13T08:34:56.850Z,103741.81
2023-02-13T08:37:25.095Z,103742.78
2023-02-13T08:39:52.651Z,103745.13
2023-02-13T08:42:20.185Z,103745.88
2023-02-13T08:44:47.646Z,103740.38
2023-02-13T08:47:15.241Z,103750.41
2023-02-13T08:49:43.120Z,103747.16
2023-02-13T08:52:10.639Z,103744.91
2023-02-13T08:54:38.102Z,103749.56
2023-02-13T08:57:05.616Z,103745.19
2023-02-13T08:59:33.214Z,103743.25
2023-02-13T09:02:02.696Z,103746.16
2023-02-13T09:04:30.306Z,103745.88
2023-02-13T09:06:57.821Z,103743.38
2023-02-13T09:09:25.300Z,103742.25
2023-02-13T09:11:54.070Z,103759.44
2023-02-13T09:14:23.290Z,103747.75
2023-02-13T09:16:51.883Z,103747.75
2023-02-13T09:19:19.391Z,103741.41
2023-02-13T09:21:46.878Z,103749.97
2023-02-13T09:24:14.361Z,103748.47
2023-02-13T09:26:41.792Z,103750.34
2023-02-13T09:29:09.246Z,103753.41
2023-02-13T09:31:36.837Z,103730.00
2023-02-13T09:34:04.396Z,103743.06
2023-02-13T09:36:33.160Z,103741.97
2023-02-13T09:39:00.949Z,103737.88
2023-02-13T09:41:37.158Z,103747.94
2023-02-13T09:44:33.575Z,103745.00
2023-02-13T09:47:06.907Z,103739.97
2023-02-13T09:49:36.968Z,103735.09
2023-02-13T09:52:18.945Z,103737.75
2023-02-13T09:54:46.939Z,103745.00
2023-02-13T09:57:32.294Z,103734.03
2023-02-13T10:00:14.580Z,103728.13
2023-02-13T10:02:46.849Z,103733.53
2023-02-13T10:05:25.025Z,103729.09
2023-02-13T10:07:58.518Z,103737.66
2023-02-13T10:10:41.224Z,103737.38
2023-02-13T10:13:08.675Z,103733.69
2023-02-13T10:15:49.526Z,103729.03
2023-02-13T10:18:24.567Z,103726.56
2023-02-13T10:20:57.664Z,103720.34
2023-02-13T10:23:32.713Z,103721.53
2023-02-13T10:26:02.219Z,103717.38
2023-02-13T10:28:32.151Z,103722.31
2023-02-13T10:31:04.089Z,103720.31
2023-02-13T10:33:35.021Z,103714.69
2023-02-13T10:36:02.609Z,103714.06
2023-02-13T10:38:34.804Z,103710.16
2023-02-13T10:41:02.172Z,103711.72
2023-02-13T10:43:31.213Z,103708.03
2023-02-13T10:46:07.801Z,103710.09
2023-02-13T10:48:41.349Z,103714.31
2023-02-13T10:51:09.871Z,103713.88
2023-02-13T10:53:55.362Z,103704.56
2023-02-13T10:56:26.683Z,103707.53
2023-02-13T10:58:54.133Z,103704.41
2023-02-13T11:01:40.521Z,103697.03
2023-02-13T11:04:12.547Z,103706.28
2023-02-13T11:06:44.424Z,103702.66
2023-02-13T11:09:13.495Z,103696.06
2023-02-13T11:11:44.155Z,103701.00
2023-02-13T11:14:11.906Z,103702.03
2023-02-13T11:16:52.807Z,103704.69
2023-02-13T11:19:23.291Z,103700.53
2023-02-13T11:21:54.340Z,103694.19
2023-02-13T11:24:24.251Z,103687.22
2023-02-13T11:26:53.672Z,103679.75
2023-02-13T11:29:26.780Z,103686.97
2023-02-13T11:32:05.560Z,103667.84
2023-02-13T11:34:33.891Z,103670.44
2023-02-13T11:37:21.847Z,103664.47
2023-02-13T11:39:51.399Z,103662.41
2023-02-13T11:42:36.273Z,103663.00
2023-02-13T11:45:06.465Z,103662.78
2023-02-13T11:47:40.010Z,103657.47
2023-02-13T11:50:20.157Z,103659.63
2023-02-13T11:52:55.440Z,103619.94
2023-02-13T11:55:33.486Z,103647.03
2023-02-13T11:58:20.954Z,103645.03
2023-02-13T12:00:48.610Z,103640.09
2023-02-13T12:03:22.352Z,103634.06
2023-02-13T12:06:08.094Z,103641.00
2023-02-13T12:08:36.981Z,103634.78
2023-02-13T12:11:09.097Z,103631.06
2023-02-13T12:13:40.217Z,103635.16
2023-02-13T12:16:19.001Z,103630.53
2023-02-13T12:18:50.393Z,103625.75
2023-02-13T12:21:35.239Z,103639.31
2023-02-13T12:24:15.520Z,103631.75
2023-02-13T12:26:45.016Z,103629.50
2023-02-13T12:29:18.642Z,103621.16
2023-02-13T12:31:48.925Z,103632.81
2023-02-13T12:34:28.452Z,103620.91
2023-02-13T12:37:04.972Z,103622.28
2023-02-13T12:39:34.198Z,103608.94
2023-02-13T12:42:26.600Z,103619.84
2023-02-13T12:45:02.914Z,103623.31
2023-02-13T12:47:31.426Z,103623.75
2023-02-13T12:50:21.975Z,103618.38
2023-02-13T12:52:49.503Z,103609.25
2023-02-13T12:55:32.357Z,103611.50
2023-02-13T12:57:59.774Z,103607.78
2023-02-13T13:00:30.306Z,103606.59
2023-02-13T13:03:23.483Z,103597.91
2023-02-13T13:06:10.505Z,103601.66
2023-02-13T13:08:41.681Z,103598.16
2023-02-13T13:11:11.911Z,103593.03
2023-02-13T13:13:39.350Z,103591.28
2023-02-13T13:16:16.824Z,103585.44
2023-02-13T13:18:52.489Z,103584.38
2023-02-13T13:21:28.777Z,103590.72
2023-02-13T13:23:57.354Z,103573.28
2023-02-13T13:26:32.185Z,103578.13
2023-02-13T13:29:01.051Z,103580.41
2023-02-13T13:31:29.249Z,103578.78
2023-02-13T13:34:06.891Z,103569.00
2023-02-13T13:36:41.691Z,103567.34
2023-02-13T13:39:29.233Z,103566.63
2023-02-13T13:42:01.005Z,103560.63
2023-02-13T13:44:48.844Z,103556.09
2023-02-13T13:47:16.263Z,103540.41
2023-02-13T13:49:53.833Z,103545.13
2023-02-13T13:52:26.729Z,103536.25
2023-02-13T13:54:55.007Z,103536.63
2023-02-13T13:57:23.842Z,103527.06
2023-02-13T14:00:02.337Z,103529.47
2023-02-13T14:02:40.382Z,103531.06
2023-02-13T14:05:26.532Z,103530.53
2023-02-13T14:07:55.427Z,103529.56
2023-02-13T14:10:23.610Z,103526.00
2023-02-13T14:12:57.237Z,103533.25
2023-02-13T14:15:44.760Z,103528.88
2023-02-13T14:18:12.420Z,103530.63
2023-02-13T14:20:39.875Z,103521.66
2023-02-13T14:23:09.411Z,103521.50
2023-02-13T14:25:36.902Z,103520.66
2023-02-13T14:28:05.544Z,103523.09
2023-02-13T14:30:34.514Z,103525.22
2023-02-13T14:33:05.817Z,103517.97
2023-02-13T14:35:34.774Z,103512.81
2023-02-13T14:38:03.768Z,103521.75
2023-02-13T14:40:50.127Z,103527.22
2023-02-13T14:43:30.946Z,103515.41
2023-02-13T14:45:59.998Z,103518.28
2023-02-13T14:48:38.595Z,103515.19
2023-02-13T14:51:06.457Z,103522.56
2023-02-13T14:53:47.990Z,103523.66
2023-02-13T14:56:18.805Z,103516.31
2023-02-13T14:58:59.669Z,103518.75
2023-02-13T15:01:40.949Z,103520.16
2023-02-13T15:04:12.249Z,103525.84
2023-02-13T15:06:43.131Z,103511.00
2023-02-13T15:09:20.515Z,103521.66
2023-02-13T15:11:47.999Z,103513.44
2023-02-13T15:14:21.722Z,103516.84
2023-02-13T15:16:51.636Z,103512.84
2023-02-13T15:19:20.419Z,103514.13
2023-02-13T15:21:50.130Z,103520.81
2023-02-13T15:24:17.762Z,103518.09
2023-02-13T15:26:50.790Z,103506.47
2023-02-13T15:29:29.316Z,103503.88
2023-02-13T15:31:59.182Z,103510.69
2023-02-13T15:34:32.216Z,103501.72
2023-02-13T15:36:59.764Z,103498.75
2023-02-13T15:39:28.416Z,103504.81
2023-02-13T15:41:58.313Z,103504.59
2023-02-13T15:44:39.490Z,103501.19
2023-02-13T15:47:08.844Z,103502.84
2023-02-13T15:49:40.387Z,103501.75
2023-02-13T15:52:09.728Z,103497.16
2023-02-13T15:54:37.251Z,103501.47
2023-02-13T15:57:06.538Z,103499.50
2023-02-13T15:59:38.572Z,103498.03
2023-02-13T16:02:12.629Z,103494.53
2023-02-13T16:04:41.883Z,103503.88
2023-02-13T16:07:13.628Z,103502.03
2023-02-13T16:09:41.185Z,103501.81
2023-02-13T16:12:27.841Z,103502.59
2023-02-13T16:15:03.047Z,103499.75
2023-02-13T16:17:32.526Z,103518.72
2023-02-13T16:20:00.019Z,103501.88
2023-02-13T16:22:27.699Z,103501.56
2023-02-13T16:24:56.974Z,103502.03
2023-02-13T16:27:27.482Z,103502.88
2023-02-13T16:29:59.900Z,103505.16
2023-02-13T16:32:29.361Z,103503.84
2023-02-13T16:34:57.517Z,103496.63
2023-02-13T16:37:27.771Z,103498.06
2023-02-13T16:39:55.234Z,103493.44
2023-02-13T16:42:22.678Z,103495.06
2023-02-13T16:44:50.079Z,103489.53
2023-02-13T16:47:25.183Z,103498.50
2023-02-13T16:49:54.925Z,103496.97
2023-02-13T16:52:26.402Z,103498.66
2023-02-13T16:54:58.027Z,103499.41
2023-02-13T16:57:31.369Z,103502.97
2023-02-13T17:00:04.999Z,103503.16
2023-02-13T17:02:32.494Z,103503.59
2023-02-13T17:05:16.214Z,103510.22
2023-02-13T17:07:45.029Z,103511.53
2023-02-13T17:10:27.215Z,103509.09
2023-02-13T17:12:55.993Z,103512.41
2023-02-13T17:15:24.565Z,103517.19
2023-02-13T17:17:53.555Z,103522.88
2023-02-13T17:20:28.709Z,103526.09
2023-02-13T17:22:57.427Z,103521.50
2023-02-13T17:25:26.182Z,103524.94
2023-02-13T17:27:55.324Z,103527.06
2023-02-13T17:30:24.072Z,103527.66
2023-02-13T17:32:55.032Z,103528.19
2023-02-13T17:35:22.625Z,103529.28
2023-02-13T17:37:49.990Z,103528.88
2023-02-13T17:40:18.547Z,103530.50
2023-02-13T17:42:46.855Z,103530.06
2023-02-13T17:45:18.234Z,103526.53
2023-02-13T17:47:45.869Z,103531.25
2023-02-13T17:50:14.515Z,103531.94
2023-02-13T17:52:42.672Z,103533.50
2023-02-13T17:55:18.276Z,103524.47
2023-02-13T17:57:45.797Z,103519.88
2023-02-13T18:00:14.840Z,103523.97
2023-02-13T18:02:42.725Z,103525.50
2023-02-13T18:05:10.592Z,103517.78
2023-02-13T18:07:39.473Z,103517.34
2023-02-13T18:10:08.856Z,103514.38
2023-02-13T18:12:36.559Z,103510.69
2023-02-13T18:15:05.301Z,103514.09
2023-02-13T18:17:33.082Z,103509.16
2023-02-13T18:20:00.549Z,103513.47
2023-02-13T18:22:27.980Z,103508.88
2023-02-13T18:24:55.399Z,103524.25
2023-02-13T18:27:23.189Z,103525.75
2023-02-13T18:29:50.687Z,103518.47
2023-02-13T18:32:18.188Z,103520.22
2023-02-13T18:34:46.631Z,103515.97
2023-02-13T18:37:14.055Z,103514.75
2023-02-13T18:39:41.497Z,103514.03
2023-02-13T18:42:08.975Z,103508.09
2023-02-13T18:44:36.642Z,103507.94
2023-02-13T18:47:04.063Z,103506.84
2023-02-13T18:49:31.443Z,103512.66
2023-02-13T18:51:59.112Z,103505.38
2023-02-13T18:54:26.521Z,103517.38
2023-02-13T18:56:53.908Z,103509.63
2023-02-13T18:59:22.950Z,103506.38
2023-02-13T19:01:50.882Z,103512.19
2023-02-13T19:04:18.487Z,103513.56
2023-02-13T19:06:46.179Z,103510.41
2023-02-13T19:09:13.594Z,103518.16
2023-02-13T19:11:41.076Z,103512.78
2023-02-13T19:14:08.668Z,103519.06
2023-02-13T19:16:36.741Z,103519.81
2023-02-13T19:19:05.600Z,103522.38
2023-02-13T19:21:34.915Z,103529.16
2023-02-13T19:24:06.281Z,103529.91
2023-02-13T19:26:33.704Z,103527.88
2023-02-13T19:29:01.194Z,103531.59
2023-02-13T19:31:30.167Z,103531.47
2023-02-13T19:33:59.448Z,103523.53
2023-02-13T19:36:28.297Z,103525.00
2023-02-13T19:38:56.906Z,103527.56
2023-02-13T19:41:24.527Z,103514.38
2023-02-13T19:43:53.564Z,103519.22
2023-02-13T19:46:25.048Z,103525.94
2023-02-13T19:48:52.669Z,103522.69
2023-02-13T19:51:21.240Z,103513.94
2023-02-13T19:53:48.934Z,103529.38
2023-02-13T19:56:16.369Z,103519.84
2023-02-13T19:58:44.038Z,103525.19
2023-02-13T20:01:13.233Z,103527.50
2023-02-13T20:03:41.139Z,103525.56
2023-02-13T20:06:11.274Z,103488.34
2023-02-13T20:08:40.851Z,103525.44
2023-02-13T20:11:10.245Z,103532.69
2023-02-13T20:13:37.787Z,103541.63
2023-02-13T20:16:09.417Z,103531.75
2023-02-13T20:18:38.407Z,103528.66
2023-02-13T20:21:09.277Z,103533.81
2023-02-13T20:23:37.265Z,103529.91
2023-02-13T20:26:15.185Z,103534.09
2023-02-13T20:28:42.863Z,103534.72
2023-02-13T20:31:18.089Z,103537.78
2023-02-13T20:33:45.900Z,103535.81
2023-02-13T20:36:14.263Z,103545.78
2023-02-13T20:38:42.619Z,103549.88
2023-02-13T20:41:14.057Z,103543.44
2023-02-13T20:43:41.885Z,103546.84
2023-02-13T20:46:09.776Z,103547.03
2023-02-13T20:48:37.933Z,103554.59
2023-02-13T20:51:06.345Z,103558.78
2023-02-13T20:53:34.542Z,103554.25
2023-02-13T20:56:04.412Z,103554.75
2023-02-13T20:58:32.472Z,103555.91
2023-02-13T21:01:00.916Z,103563.84
2023-02-13T21:03:28.527Z,103559.47
2023-02-13T21:05:55.919Z,103559.56
2023-02-13T21:08:23.302Z,103554.28
2023-02-13T21:10:50.817Z,103568.00
2023-02-13T21:13:18.360Z,103559.28
2023-02-13T21:15:48.182Z,103560.50
2023-02-13T21:18:15.795Z,103558.38
2023-02-13T21:20:43.232Z,103563.53
2023-02-13T21:23:10.705Z,103574.97
2023-02-13T21:25:38.154Z,103567.03
2023-02-13T21:28:05.598Z,103573.63
2023-02-13T21:30:33.103Z,103562.41
2023-02-13T21:33:00.625Z,103567.47
2023-02-13T21:35:28.037Z,103570.34
2023-02-13T21:37:55.405Z,103568.31
2023-02-13T21:40:22.908Z,103567.22
2023-02-13T21:42:52.794Z,103572.19
2023-02-13T21:45:20.605Z,103566.66
2023-02-13T21:47:48.124Z,103568.63
2023-02-13T21:50:15.650Z,103566.00
2023-02-13T21:52:43.158Z,103566.84
2023-02-13T21:55:10.679Z,103564.78
2023-02-13T21:57:38.538Z,103570.06
2023-02-13T22:00:08.691Z,103556.97
2023-02-13T22:02:36.199Z,103555.19
2023-02-13T22:05:04.529Z,103553.41
2023-02-13T22:07:32.035Z,103553.22
2023-02-13T22:09:59.488Z,103558.38
2023-02-13T22:12:26.960Z,103558.59
2023-02-13T22:14:55.350Z,103558.88
2023-02-13T22:17:22.856Z,103554.59
2023-02-13T22:19:50.364Z,103547.88
2023-02-13T22:22:17.876Z,103548.06
2023-02-13T22:24:45.322Z,103552.03
2023-02-13T22:27:12.753Z,103543.34
2023-02-13T22:29:40.975Z,103543.13
2023-02-13T22:32:08.667Z,103542.91
2023-02-13T22:34:36.386Z,103540.84
2023-02-13T22:37:03.842Z,103541.53
2023-02-13T22:39:31.274Z,103537.47
2023-02-13T22:41:58.699Z,103530.81
2023-02-13T22:44:26.132Z,103532.03
2023-02-13T22:46:53.568Z,103532.41
2023-02-13T22:49:20.964Z,103529.72
2023-02-13T22:51:48.363Z,103522.41
2023-02-13T22:54:15.757Z,103529.03
2023-02-13T22:56:44.307Z,103526.09
2023-02-13T22:59:12.745Z,103527.75
2023-02-13T23:01:40.184Z,103530.22
2023-02-13T23:04:07.754Z,103537.56
2023-02-13T23:06:35.310Z,103529.25
2023-02-13T23:09:02.795Z,103532.41
2023-02-13T23:11:47.670Z,103529.72
2023-02-13T23:14:15.833Z,103526.84
2023-02-13T23:17:01.441Z,103532.78
2023-02-13T23:19:29.888Z,103525.63
2023-02-13T23:21:57.532Z,103529.19
2023-02-13T23:24:24.996Z,103517.59
2023-02-13T23:26:52.462Z,103513.31
2023-02-13T23:29:19.877Z,103513.16
2023-02-13T23:31:47.620Z,103513.16
2023-02-13T23:34:15.169Z,103518.56
2023-02-13T23:36:42.873Z,103519.47
2023-02-13T23:39:10.419Z,103521.50
2023-02-13T23:41:37.841Z,103515.97
2023-02-13T23:44:05.266Z,103522.19
2023-02-13T23:46:32.831Z,103521.00
2023-02-13T23:49:00.243Z,103519.28
2023-02-13T23:51:27.630Z,103523.34
2023-02-13T23:53:57.211Z,103523.13
2023-02-13T23:56:25.844Z,103527.69
2023-02-13T23:58:53.790Z,103532.84
